Time;durP1;ratioP1;P1;durP2;ratioP2;P2;SDS_P1;SDS_P2;PMS_P1;PMS_P2;Temp;Humidity;BMP_temperature;BMP_pressure;BME280_temperature;BME280_humidity;BME280_pressure;Samples;Min_cycle;Max_cycle;Signal;HPM_P1;HPM_P2
2021/12/20 14:45:51;;;;;;;;;;;0.20;99.90;;;;;;5115525;27;19919;-94
2021/12/20 14:48:24;;;;;;;;;;;0.20;99.90;;;;;;5112309;28;19912;-94
2021/12/20 14:50:50;;;;;;;;;;;0.20;99.90;;;;;;5114148;28;19953;-93
2021/12/20 15:20:27;;;;;;;;;;;0.30;99.90;;;;;;5070083;28;19913;-93
2021/12/20 15:22:52;;;;;;;;;;;0.30;99.90;;;;;;5047175;28;20001;-93
2021/12/20 15:25:21;;;;;;;;;;;0.30;99.90;;;;;;5019190;28;19913;-93
2021/12/20 15:27:46;;;;;;;;;;;0.40;99.90;;;;;;5030719;28;19956;-94
2021/12/20 15:30:12;;;;;;;;;;;0.50;99.90;;;;;;5030613;28;19967;-94
2021/12/20 15:32:37;;;;;;;;;;;0.50;99.90;;;;;;5031155;28;19909;-94
2021/12/20 15:35:03;;;;;;;;;;;0.70;99.90;;;;;;5030486;28;20266;-94
2021/12/20 15:37:29;;;;;;;;;;;0.70;99.90;;;;;;5030491;28;19909;-95
2021/12/20 15:39:54;;;;;;;;;;;0.80;99.90;;;;;;5030671;28;20317;-94
2021/12/20 15:42:29;;;;;;;;;;;0.90;99.90;;;;;;5045188;28;19909;-94
2021/12/20 15:46:05;;;;;;;;;;;1.00;99.90;;;;;;5078735;28;19913;-94
2021/12/20 15:48:30;;;;;;;;;;;1.00;99.90;;;;;;5104512;28;19935;-94
2021/12/20 15:50:56;;;;;;;;;;;1.10;99.90;;;;;;5062839;28;19909;-94
2021/12/20 15:53:23;;;;;;;;;;;1.10;99.90;;;;;;5050412;28;20418;-95
2021/12/20 15:55:49;;;;;;;;;;;1.20;99.90;;;;;;5065174;28;19936;-96
2021/12/20 15:58:15;;;;;;;;;;;1.20;99.90;;;;;;5070646;28;19924;-92
2021/12/20 16:00:40;;;;;;;;;;;1.30;99.90;;;;;;5069544;28;19913;-92
2021/12/20 16:03:06;;;;;;;;;;;1.30;99.90;;;;;;5052283;28;19964;-94
2021/12/20 16:06:05;;;;;;;;;;;1.30;99.90;;;;;;5074430;28;19920;-96
2021/12/20 16:08:31;;;;;;;;;;;1.30;99.90;;;;;;5063193;28;19917;-95
2021/12/20 16:11:11;;;;;;;;;;;1.20;99.90;;;;;;5063377;28;19909;-95
2021/12/20 16:13:36;;;;;;;;;;;1.20;99.90;;;;;;5072445;28;19952;-94
2021/12/20 16:16:02;;;;;;;;;;;1.20;99.90;;;;;;5055604;28;19913;-93
2021/12/20 16:18:28;;;;;;;;;;;1.10;99.90;;;;;;5052159;28;19917;-94
2021/12/20 16:20:53;;;;;;;;;;;1.10;99.90;;;;;;5052500;28;19915;-95
2021/12/20 16:23:19;;;;;;;;;;;1.10;99.90;;;;;;5055511;28;19967;-95
2021/12/20 16:25:48;;;;;;;;;;;1.00;99.90;;;;;;5057355;28;19913;-94
2021/12/20 16:28:18;;;;;;;;;;;1.00;99.90;;;;;;5068400;28;19916;-95
2021/12/20 16:30:47;;;;;;;;;;;1.00;99.90;;;;;;5107306;23;19926;-95
2021/12/20 16:33:13;;;;;;;;;;;1.00;99.90;;;;;;5042628;28;19917;-95
2021/12/20 16:35:39;;;;;;;;;;;1.00;99.90;;;;;;5047617;28;19921;-94
2021/12/20 16:38:05;;;;;;;;;;;1.00;99.90;;;;;;5043592;28;19944;-94
2021/12/20 16:40:31;;;;;;;;;;;1.00;99.90;;;;;;5048403;28;20291;-94
2021/12/20 16:42:59;;;;;;;;;;;1.00;99.90;;;;;;5047856;28;19910;-94
2021/12/20 16:46:10;;;;;;;;;;;1.00;99.90;;;;;;5039978;28;20349;-94
2021/12/20 16:48:25;;;;;;;;;;;1.00;99.90;;;;;;5028369;28;19992;-94
2021/12/20 16:50:52;;;;;;;;;;;1.10;99.90;;;;;;5022791;28;19996;-92
2021/12/20 16:53:18;;;;;;;;;;;1.10;99.90;;;;;;5032899;28;20358;-91
2021/12/20 16:55:44;;;;;;;;;;;1.10;99.90;;;;;;5026271;28;20012;-92
2021/12/20 16:58:09;;;;;;;;;;;1.10;99.90;;;;;;5019694;28;20251;-92
2021/12/20 17:00:38;;;;;;;;;;;1.10;99.90;;;;;;5016551;28;19944;-90
2021/12/20 17:03:06;;;;;;;;;;;1.10;99.90;;;;;;5015928;28;19913;-94
2021/12/20 17:08:18;;;;;;;;;;;1.10;99.90;;;;;;5014525;28;19928;-94
2021/12/20 17:10:44;;;;;;;;;;;1.10;99.90;;;;;;5011433;28;20231;-92
2021/12/20 17:13:10;;;;;;;;;;;1.10;99.90;;;;;;5018724;28;19914;-92
2021/12/20 17:15:38;;;;;;;;;;;1.10;99.90;;;;;;5017885;28;19921;-95
2021/12/20 17:18:04;;;;;;;;;;;1.10;99.90;;;;;;5015406;28;19913;-94
2021/12/20 17:20:32;;;;;;;;;;;1.10;99.90;;;;;;5015154;28;20376;-94
2021/12/20 17:22:58;;;;;;;;;;;1.10;99.90;;;;;;5008090;28;19921;-95
2021/12/20 17:25:23;;;;;;;;;;;1.10;99.90;;;;;;5017562;28;20333;-94
2021/12/20 17:27:49;;;;;;;;;;;1.10;99.90;;;;;;5019328;28;19916;-94
2021/12/20 17:30:16;;;;;;;;;;;1.10;99.90;;;;;;5022995;28;19926;-94
2021/12/20 17:32:42;;;;;;;;;;;1.10;99.90;;;;;;5017894;28;19909;-93
2021/12/20 17:35:08;;;;;;;;;;;1.20;99.90;;;;;;5014783;28;19939;-93
2021/12/20 17:37:33;;;;;;;;;;;1.20;99.90;;;;;;5009227;28;19914;-94
2021/12/20 17:39:59;;;;;;;;;;;1.20;99.90;;;;;;5006705;28;20358;-95
2021/12/20 17:42:25;;;;;;;;;;;1.10;99.90;;;;;;5016150;28;19914;-91
2021/12/20 17:44:50;;;;;;;;;;;1.10;99.90;;;;;;5011714;28;19917;-92
2021/12/20 17:47:16;;;;;;;;;;;1.20;99.90;;;;;;5005692;28;19917;-94
2021/12/20 17:49:42;;;;;;;;;;;1.20;99.90;;;;;;5007002;28;19920;-92
2021/12/20 17:52:10;;;;;;;;;;;1.20;99.90;;;;;;5009103;28;19917;-93
2021/12/20 17:54:36;;;;;;;;;;;1.20;99.90;;;;;;5015048;28;19913;-95
2021/12/20 17:57:03;;;;;;;;;;;1.20;99.90;;;;;;5015006;28;19921;-94
2021/12/20 17:59:50;;;;;;;;;;;1.20;99.90;;;;;;5012816;28;19914;-95
2021/12/20 18:02:21;;;;;;;;;;;1.20;99.90;;;;;;5005029;28;19984;-92
2021/12/20 18:04:47;;;;;;;;;;;1.10;99.90;;;;;;5014136;28;19928;-93
2021/12/20 18:07:13;;;;;;;;;;;1.10;99.90;;;;;;5009027;28;19914;-92
2021/12/20 18:09:38;;;;;;;;;;;1.00;99.90;;;;;;5032896;28;19914;-94
2021/12/20 18:12:04;;;;;;;;;;;0.90;99.90;;;;;;5015524;28;20052;-92
2021/12/20 18:14:30;;;;;;;;;;;0.90;99.90;;;;;;5015518;28;19914;-93
2021/12/20 18:16:55;;;;;;;;;;;0.80;99.90;;;;;;5007512;28;19925;-94
2021/12/20 18:19:38;;;;;;;;;;;0.80;99.90;;;;;;5018682;28;19973;-95
2021/12/20 18:22:04;;;;;;;;;;;0.70;99.90;;;;;;5015150;28;19913;-94
2021/12/20 18:24:29;;;;;;;;;;;0.70;99.90;;;;;;5009035;28;19931;-95
2021/12/20 18:26:55;;;;;;;;;;;0.60;99.90;;;;;;5024691;28;19960;-93
2021/12/20 18:29:21;;;;;;;;;;;0.50;99.90;;;;;;5021779;28;19922;-96
2021/12/20 18:31:47;;;;;;;;;;;0.50;99.90;;;;;;5015501;28;20286;-93
2021/12/20 18:34:12;;;;;;;;;;;0.50;99.90;;;;;;5020947;28;19920;-93
2021/12/20 18:36:38;;;;;;;;;;;0.40;99.90;;;;;;5021494;28;19914;-93
2021/12/20 18:39:19;;;;;;;;;;;0.40;99.90;;;;;;5020245;28;19913;-96
2021/12/20 18:41:45;;;;;;;;;;;0.30;99.90;;;;;;5171312;23;19925;-95
2021/12/20 18:44:11;;;;;;;;;;;0.20;99.90;;;;;;5082214;28;19916;-96
2021/12/20 18:46:38;;;;;;;;;;;0.10;99.90;;;;;;5089498;28;19919;-94
2021/12/20 18:49:07;;;;;;;;;;;0.00;99.90;;;;;;5083937;28;19924;-96
2021/12/20 18:51:36;;;;;;;;;;;0.00;99.90;;;;;;5082209;28;20361;-96
2021/12/20 18:54:01;;;;;;;;;;;-0.10;99.90;;;;;;5081557;28;19913;-96
2021/12/20 18:56:27;;;;;;;;;;;-0.10;99.90;;;;;;5077866;28;19976;-95
2021/12/20 19:14:29;;;;;;;;;;;-0.50;99.90;;;;;;5862593;22;20282;-91
2021/12/20 19:16:59;;;;;;;;;;;-0.50;99.90;;;;;;5058293;28;19913;-95
2021/12/20 19:19:26;;;;;;;;;;;-0.50;99.90;;;;;;5059924;28;19904;-95
2021/12/20 19:21:52;;;;;;;;;;;-0.60;99.90;;;;;;5052376;28;19938;-93
2021/12/20 19:24:19;;;;;;;;;;;-0.60;99.90;;;;;;5058532;28;19917;-95
2021/12/20 19:26:44;;;;;;;;;;;-0.60;99.90;;;;;;5057652;28;19928;-95
2021/12/20 19:29:15;;;;;;;;;;;-0.70;99.90;;;;;;5052331;28;19925;-94
2021/12/20 19:31:45;;;;;;;;;;;-0.70;99.90;;;;;;5052821;28;19920;-95
2021/12/20 19:34:12;;;;;;;;;;;-0.70;99.90;;;;;;5070911;28;19913;-93
2021/12/20 19:36:37;;;;;;;;;;;-0.80;99.90;;;;;;5052819;28;19917;-91
2021/12/20 19:39:06;;;;;;;;;;;-0.70;99.90;;;;;;5061314;28;19921;-90
2021/12/20 19:41:32;;;;;;;;;;;-0.70;99.90;;;;;;5058152;28;19913;-92
2021/12/20 19:43:59;;;;;;;;;;;-0.70;99.90;;;;;;5055010;28;19923;-90
2021/12/20 19:46:25;;;;;;;;;;;-0.70;99.90;;;;;;5055078;28;19978;-94
2021/12/20 19:48:51;;;;;;;;;;;-0.70;99.90;;;;;;5054109;28;20431;-91
2021/12/20 19:51:17;;;;;;;;;;;-0.70;99.90;;;;;;5052716;28;20011;-93
2021/12/20 19:53:43;;;;;;;;;;;-0.70;99.90;;;;;;5052693;28;19948;-92
2021/12/20 19:56:09;;;;;;;;;;;-0.60;99.90;;;;;;5052686;28;19909;-91
2021/12/20 19:58:35;;;;;;;;;;;-0.60;99.90;;;;;;5052507;28;19909;-93
2021/12/20 20:01:01;;;;;;;;;;;-0.60;99.90;;;;;;5052733;28;20011;-93
2021/12/20 20:03:27;;;;;;;;;;;-0.70;99.90;;;;;;5053313;28;19912;-94
2021/12/20 20:05:52;;;;;;;;;;;-0.70;99.90;;;;;;5052207;28;19927;-92
2021/12/20 20:32:08;;;;;;;;;;;-1.50;99.90;;;;;;5112186;27;20372;-90
